Time;durP1;ratioP1;P1;durP2;ratioP2;P2;SDS_P1;SDS_P2;PMS_P1;PMS_P2;Temp;Humidity;BMP_temperature;BMP_pressure;BME280_temperature;BME280_humidity;BME280_pressure;Samples;Min_cycle;Max_cycle;Signal;HPM_P1;HPM_P2
2022/03/26 00:01:50;;;;;;;9.32;6.25;;;10.90;96.70;;;;;;4976144;28;20078;-82
2022/03/26 00:04:18;;;;;;;10.43;6.82;;;11.00;96.70;;;;;;4975719;28;20568;-81
2022/03/26 00:06:48;;;;;;;9.25;7.35;;;11.10;96.70;;;;;;4994790;28;20046;-81
2022/03/26 00:09:16;;;;;;;8.75;6.93;;;11.10;96.70;;;;;;4976425;28;20053;-82
2022/03/26 00:11:44;;;;;;;15.60;8.65;;;11.20;96.70;;;;;;4969184;28;20096;-83
2022/03/26 00:14:12;;;;;;;12.15;7.50;;;11.00;96.70;;;;;;5005178;28;20133;-81
2022/03/26 00:16:40;;;;;;;11.10;8.25;;;11.00;96.70;;;;;;4990868;28;20479;-81
2022/03/26 00:19:09;;;;;;;15.85;9.85;;;10.90;96.70;;;;;;4970530;28;20073;-81
2022/03/26 00:21:37;;;;;;;14.07;9.18;;;10.80;96.70;;;;;;4991166;28;20049;-81
2022/03/26 00:24:07;;;;;;;11.57;8.50;;;10.80;96.70;;;;;;5007938;28;20141;-82
2022/03/26 00:26:35;;;;;;;13.65;9.27;;;10.80;96.70;;;;;;4988124;28;20113;-80
2022/03/26 00:29:03;;;;;;;11.18;8.18;;;10.70;96.70;;;;;;4986267;28;20046;-80
2022/03/26 00:31:33;;;;;;;10.82;7.43;;;10.70;96.70;;;;;;4971952;28;20066;-80
2022/03/26 00:34:01;;;;;;;10.27;6.60;;;10.70;96.70;;;;;;4987218;28;20042;-80
2022/03/26 00:36:29;;;;;;;8.00;6.13;;;10.70;96.70;;;;;;4991590;28;20489;-82
2022/03/26 00:38:57;;;;;;;8.05;6.82;;;10.70;96.70;;;;;;4974801;28;20052;-81
2022/03/26 00:41:28;;;;;;;8.18;6.25;;;10.50;96.70;;;;;;5003065;28;20046;-82
2022/03/26 00:43:57;;;;;;;9.52;6.43;;;10.50;96.70;;;;;;5006654;28;20050;-82
2022/03/26 00:46:25;;;;;;;8.40;6.85;;;10.50;96.70;;;;;;4978485;28;20050;-80
2022/03/26 00:48:56;;;;;;;9.48;6.97;;;10.50;96.70;;;;;;4982124;28;20038;-80
2022/03/26 00:51:24;;;;;;;10.50;6.57;;;10.60;96.70;;;;;;4975096;28;20050;-80
2022/03/26 00:53:52;;;;;;;10.63;6.95;;;10.60;96.70;;;;;;4975156;28;20037;-80
2022/03/26 00:56:20;;;;;;;8.50;6.53;;;10.60;96.70;;;;;;5003223;28;20054;-79
2022/03/26 00:58:49;;;;;;;8.98;7.05;;;10.40;96.70;;;;;;4995460;28;20064;-80
2022/03/26 01:01:17;;;;;;;8.40;6.55;;;10.40;96.70;;;;;;4979582;28;20602;-80
2022/03/26 01:03:46;;;;;;;10.77;7.45;;;10.30;96.70;;;;;;4987706;28;20070;-78
2022/03/26 01:06:14;;;;;;;8.80;6.75;;;10.50;96.70;;;;;;4985890;28;20073;-79
2022/03/26 01:08:42;;;;;;;10.82;6.32;;;10.30;96.70;;;;;;5004915;28;20049;-80
2022/03/26 01:11:11;;;;;;;8.30;5.88;;;10.10;96.70;;;;;;4983746;28;20118;-79
2022/03/26 01:13:39;;;;;;;8.50;5.72;;;10.10;96.70;;;;;;5004571;28;20050;-80
2022/03/26 01:16:09;;;;;;;8.43;5.68;;;10.00;96.70;;;;;;4977182;28;20452;-79
2022/03/26 01:18:37;;;;;;;7.97;6.10;;;10.10;96.70;;;;;;4971945;28;20523;-80
2022/03/26 01:21:05;;;;;;;7.75;6.35;;;10.20;96.70;;;;;;5002874;28;20034;-80
2022/03/26 01:23:34;;;;;;;7.90;5.93;;;10.30;96.70;;;;;;4973193;28;20046;-80
2022/03/26 01:26:03;;;;;;;10.20;5.60;;;10.20;96.70;;;;;;4986269;28;20050;-79
2022/03/26 01:28:31;;;;;;;7.57;5.72;;;10.20;96.70;;;;;;4997014;28;20488;-79
2022/03/26 01:31:00;;;;;;;9.20;5.07;;;10.10;96.70;;;;;;5003812;28;20120;-82
2022/03/26 01:33:29;;;;;;;7.10;5.68;;;10.00;96.70;;;;;;4986852;28;20043;-81
2022/03/26 01:35:58;;;;;;;7.00;5.47;;;10.10;96.70;;;;;;4970875;28;20539;-81
2022/03/26 01:38:26;;;;;;;6.95;5.20;;;10.00;96.70;;;;;;4992382;28;20058;-81
2022/03/26 01:40:54;;;;;;;7.47;5.55;;;9.90;96.70;;;;;;4988360;28;20053;-82
2022/03/26 01:43:22;;;;;;;6.18;4.75;;;9.80;96.70;;;;;;4974631;28;20042;-81
2022/03/26 01:45:50;;;;;;;6.32;4.85;;;9.80;96.70;;;;;;4988094;28;20061;-82
2022/03/26 01:48:19;;;;;;;10.60;5.00;;;9.80;96.70;;;;;;4987892;28;20690;-82
2022/03/26 01:50:48;;;;;;;10.57;5.50;;;9.90;96.70;;;;;;5003446;28;20055;-82
2022/03/26 01:53:17;;;;;;;7.35;5.80;;;9.70;96.70;;;;;;4974206;28;20050;-82
2022/03/26 01:55:45;;;;;;;8.63;5.70;;;9.60;96.70;;;;;;4986929;28;20039;-82
2022/03/26 01:58:13;;;;;;;7.95;5.20;;;9.70;96.70;;;;;;5004858;28;20523;-82
2022/03/26 02:00:41;;;;;;;9.65;5.60;;;9.70;96.70;;;;;;4974564;28;20100;-80
2022/03/26 02:03:10;;;;;;;9.20;6.05;;;9.60;96.70;;;;;;5012747;28;20045;-80
2022/03/26 02:05:38;;;;;;;9.45;6.07;;;9.60;96.70;;;;;;4987549;28;20412;-80
2022/03/26 02:08:08;;;;;;;9.57;6.22;;;9.70;96.70;;;;;;4989167;28;20133;-80
2022/03/26 02:10:36;;;;;;;7.03;6.20;;;9.70;96.70;;;;;;4990215;28;20125;-80
2022/03/26 02:13:05;;;;;;;10.10;6.65;;;9.70;96.70;;;;;;5011634;28;20050;-79
2022/03/26 02:15:34;;;;;;;10.23;6.80;;;9.70;96.70;;;;;;4974661;28;20081;-81
2022/03/26 02:18:03;;;;;;;11.75;6.82;;;9.70;96.70;;;;;;4979638;28;20054;-80
2022/03/26 02:20:33;;;;;;;10.73;7.70;;;9.50;96.70;;;;;;4988781;28;20042;-79
2022/03/26 02:23:01;;;;;;;13.23;7.20;;;9.40;96.70;;;;;;4981038;28;20055;-79
2022/03/26 02:25:29;;;;;;;9.48;7.10;;;9.50;96.70;;;;;;4997042;28;20073;-80
2022/03/26 02:27:57;;;;;;;12.35;7.78;;;9.50;96.70;;;;;;5009373;28;20098;-78
2022/03/26 02:30:26;;;;;;;14.52;8.20;;;9.50;96.70;;;;;;4981883;28;20074;-77
2022/03/26 02:32:54;;;;;;;9.82;7.65;;;9.40;96.70;;;;;;5005563;28;20061;-83
2022/03/26 02:35:22;;;;;;;11.30;9.02;;;9.40;96.70;;;;;;4990210;28;20134;-75
2022/03/26 02:37:52;;;;;;;10.98;7.80;;;9.40;96.70;;;;;;4966604;28;20338;-74
2022/03/26 02:40:20;;;;;;;10.02;7.50;;;9.30;96.70;;;;;;4970060;28;20055;-75
2022/03/26 02:42:48;;;;;;;14.23;7.72;;;9.30;96.70;;;;;;5001126;28;20045;-75
2022/03/26 02:45:17;;;;;;;11.85;7.28;;;9.30;96.70;;;;;;5004716;28;20042;-74
2022/03/26 02:47:45;;;;;;;13.38;7.50;;;9.30;96.70;;;;;;4999007;28;20039;-75
2022/03/26 02:50:13;;;;;;;11.15;7.45;;;9.30;96.70;;;;;;4998806;28;20054;-75
2022/03/26 02:52:41;;;;;;;10.00;7.85;;;9.20;96.70;;;;;;4983404;28;20449;-76
2022/03/26 02:55:11;;;;;;;9.70;7.20;;;9.10;96.70;;;;;;4983147;28;20109;-73
2022/03/26 02:57:40;;;;;;;8.90;7.18;;;9.00;96.70;;;;;;4969096;28;20046;-74
2022/03/26 03:00:09;;;;;;;9.40;6.55;;;9.00;96.70;;;;;;4966730;28;20049;-74
2022/03/26 03:02:37;;;;;;;8.35;6.93;;;9.00;96.70;;;;;;4983257;28;20050;-73
2022/03/26 03:05:07;;;;;;;8.85;6.43;;;9.00;96.70;;;;;;4984382;28;20046;-76
2022/03/26 03:07:36;;;;;;;12.93;6.13;;;8.90;96.70;;;;;;4963794;28;20051;-76
2022/03/26 03:10:05;;;;;;;6.95;5.93;;;8.90;96.70;;;;;;4965436;28;20447;-76
2022/03/26 03:12:35;;;;;;;6.88;5.63;;;9.00;96.70;;;;;;4980652;28;20055;-77
2022/03/26 03:15:04;;;;;;;6.75;5.70;;;8.90;96.70;;;;;;4983270;28;20046;-76
2022/03/26 03:17:36;;;;;;;9.90;5.95;;;8.90;96.70;;;;;;4999752;28;20382;-74
2022/03/26 03:20:06;;;;;;;8.15;5.85;;;8.90;96.70;;;;;;4983241;28;20054;-74
2022/03/26 03:22:34;;;;;;;7.97;5.85;;;8.70;96.70;;;;;;4997856;28;20110;-73
2022/03/26 03:25:04;;;;;;;8.88;5.50;;;8.60;96.70;;;;;;4996777;28;20161;-74
2022/03/26 03:27:34;;;;;;;8.30;5.82;;;8.70;96.70;;;;;;4971670;28;20039;-74
2022/03/26 03:30:02;;;;;;;8.30;4.95;;;8.70;96.70;;;;;;4977664;28;20424;-74
2022/03/26 03:32:31;;;;;;;6.82;5.30;;;8.70;96.70;;;;;;4999244;28;20162;-73
2022/03/26 03:34:59;;;;;;;6.30;5.20;;;8.60;96.70;;;;;;4958718;28;20047;-73
2022/03/26 03:37:27;;;;;;;7.82;5.50;;;8.50;96.70;;;;;;4986203;28;20516;-74
2022/03/26 03:39:55;;;;;;;8.45;4.88;;;8.60;96.70;;;;;;4980440;28;20106;-74
2022/03/26 03:42:24;;;;;;;8.02;4.78;;;8.60;96.70;;;;;;4964814;28;20073;-73
2022/03/26 03:44:53;;;;;;;7.68;4.85;;;8.40;96.70;;;;;;4938377;28;20194;-73
2022/03/26 03:47:21;;;;;;;7.90;4.90;;;8.40;96.70;;;;;;5002991;28;20061;-74
2022/03/26 03:49:49;;;;;;;6.57;5.13;;;8.50;96.70;;;;;;4997932;28;20042;-74
2022/03/26 03:52:18;;;;;;;9.55;5.80;;;8.50;96.70;;;;;;5000375;28;20049;-78
2022/03/26 03:54:48;;;;;;;7.47;5.03;;;8.50;96.70;;;;;;5006510;28;20051;-80
2022/03/26 03:57:16;;;;;;;7.50;5.72;;;8.50;96.70;;;;;;4999629;28;20073;-79
2022/03/26 03:59:44;;;;;;;10.10;5.90;;;8.50;96.70;;;;;;5000028;28;20054;-80
2022/03/26 04:02:14;;;;;;;9.70;5.82;;;8.40;96.70;;;;;;4985097;28;20643;-79
2022/03/26 04:04:43;;;;;;;8.80;6.40;;;8.40;96.70;;;;;;5000485;28;20051;-79
2022/03/26 04:07:11;;;;;;;9.18;6.88;;;8.50;96.70;;;;;;4988551;28;20051;-79
2022/03/26 04:09:39;;;;;;;12.23;7.00;;;8.50;96.70;;;;;;4999700;28;20051;-79
2022/03/26 04:12:08;;;;;;;9.48;6.50;;;8.30;96.70;;;;;;5001370;28;20039;-80
2022/03/26 04:14:43;;;;;;;8.00;6.32;;;8.30;96.70;;;;;;4980383;28;20046;-80
2022/03/26 04:17:13;;;;;;;9.45;7.03;;;8.40;96.70;;;;;;5001035;28;20050;-80
2022/03/26 04:19:41;;;;;;;8.88;6.38;;;8.50;96.70;;;;;;4999743;28;20106;-79
2022/03/26 04:22:09;;;;;;;9.70;7.28;;;8.50;96.70;;;;;;4966330;28;20051;-80
2022/03/26 04:24:40;;;;;;;11.20;7.25;;;8.40;96.70;;;;;;5002016;28;20062;-80
2022/03/26 04:27:08;;;;;;;7.95;6.57;;;8.30;96.70;;;;;;4968268;28;20136;-80
2022/03/26 04:29:36;;;;;;;9.32;6.63;;;8.30;96.70;;;;;;4996181;28;20090;-80
2022/03/26 04:32:05;;;;;;;8.52;6.78;;;8.40;96.70;;;;;;4987901;28;20046;-80
2022/03/26 04:34:36;;;;;;;7.60;5.97;;;8.40;96.70;;;;;;4999222;28;20061;-80
2022/03/26 04:37:06;;;;;;;9.05;6.40;;;8.40;96.70;;;;;;4998747;28;20113;-79
2022/03/26 04:39:35;;;;;;;8.77;6.32;;;8.20;96.70;;;;;;4998564;28;20055;-80
2022/03/26 04:42:03;;;;;;;8.70;6.45;;;8.10;96.70;;;;;;4972421;28;20555;-80
2022/03/26 04:44:36;;;;;;;7.18;5.72;;;8.20;96.70;;;;;;4982489;28;20066;-80
2022/03/26 04:47:05;;;;;;;11.48;6.57;;;8.20;96.70;;;;;;4985253;28;20053;-80
2022/03/26 04:49:36;;;;;;;11.05;6.63;;;8.00;96.70;;;;;;4985284;28;20058;-80
2022/03/26 04:52:05;;;;;;;8.68;7.07;;;7.90;96.70;;;;;;4967471;28;20046;-80
2022/03/26 04:54:33;;;;;;;8.98;7.13;;;8.00;96.70;;;;;;5001152;28;20057;-80
2022/03/26 04:57:01;;;;;;;9.48;6.93;;;7.90;96.70;;;;;;4966845;28;20038;-81
2022/03/26 04:59:29;;;;;;;10.23;6.28;;;7.90;96.70;;;;;;4988432;28;20386;-79
2022/03/26 05:01:58;;;;;;;9.35;6.72;;;7.90;96.70;;;;;;4968382;28;20344;-81
2022/03/26 05:04:26;;;;;;;9.32;6.43;;;8.00;96.70;;;;;;4999102;28;20108;-79
2022/03/26 05:06:56;;;;;;;11.23;6.65;;;7.90;96.70;;;;;;4966743;28;20120;-78
2022/03/26 05:09:24;;;;;;;9.60;6.22;;;7.80;96.70;;;;;;4985054;28;20493;-80
2022/03/26 05:11:52;;;;;;;7.22;5.85;;;7.90;96.70;;;;;;4966816;28;20042;-80
2022/03/26 05:14:20;;;;;;;9.65;5.75;;;7.90;96.70;;;;;;4983615;28;20047;-80
2022/03/26 05:16:48;;;;;;;7.82;5.75;;;8.10;96.70;;;;;;4966644;28;20050;-80
2022/03/26 05:19:17;;;;;;;9.43;6.40;;;7.90;96.70;;;;;;4967417;28;20563;-80
2022/03/26 05:21:45;;;;;;;9.57;6.65;;;7.70;96.70;;;;;;5000172;28;20051;-80
2022/03/26 05:24:14;;;;;;;10.60;6.25;;;7.70;96.70;;;;;;4970180;28;20041;-80
2022/03/26 05:26:43;;;;;;;8.40;6.40;;;7.70;96.70;;;;;;4959642;28;20039;-80
2022/03/26 05:29:11;;;;;;;12.32;7.10;;;7.80;96.70;;;;;;4998471;28;20054;-79
2022/03/26 05:31:39;;;;;;;10.32;6.05;;;7.90;96.70;;;;;;4992708;28;20053;-78
2022/03/26 05:34:07;;;;;;;8.07;5.75;;;7.90;96.70;;;;;;4967333;28;20093;-80
2022/03/26 05:36:35;;;;;;;9.35;6.18;;;7.80;96.70;;;;;;4968034;28;20397;-79
2022/03/26 05:39:03;;;;;;;7.72;5.65;;;7.80;96.70;;;;;;4992876;28;20145;-80
2022/03/26 05:41:33;;;;;;;8.23;6.05;;;7.70;96.70;;;;;;4981926;28;20138;-80
2022/03/26 05:44:01;;;;;;;9.18;6.40;;;7.80;96.70;;;;;;5006635;28;20058;-81
2022/03/26 05:46:29;;;;;;;8.55;5.90;;;7.80;96.70;;;;;;4964904;28;20493;-81
2022/03/26 05:48:58;;;;;;;9.57;6.57;;;7.80;96.70;;;;;;4990175;28;20050;-80
2022/03/26 05:51:26;;;;;;;15.73;7.90;;;7.80;96.70;;;;;;4972856;28;20108;-80
2022/03/26 05:53:54;;;;;;;11.55;7.65;;;7.80;96.70;;;;;;4995868;28;20061;-80
2022/03/26 05:56:23;;;;;;;11.98;8.32;;;8.00;96.70;;;;;;4973150;28;20042;-79
2022/03/26 05:58:52;;;;;;;10.52;7.40;;;8.00;96.70;;;;;;4979701;28;20042;-80
2022/03/26 06:01:24;;;;;;;9.50;7.15;;;8.10;96.70;;;;;;4974339;28;20038;-79
2022/03/26 06:03:52;;;;;;;10.13;7.53;;;8.00;96.70;;;;;;4990274;28;20484;-79
2022/03/26 06:06:20;;;;;;;12.18;8.70;;;7.90;96.70;;;;;;4989813;28;20053;-79
2022/03/26 06:08:49;;;;;;;10.77;7.22;;;7.90;96.70;;;;;;5011483;28;20665;-79
2022/03/26 06:11:17;;;;;;;9.55;7.05;;;7.90;96.70;;;;;;4977115;28;20500;-80
2022/03/26 06:13:46;;;;;;;10.60;6.85;;;7.80;96.70;;;;;;5006198;28;20057;-80
2022/03/26 06:16:16;;;;;;;9.50;6.53;;;7.70;96.70;;;;;;4991837;28;20487;-80
2022/03/26 06:18:45;;;;;;;10.93;6.80;;;7.80;96.70;;;;;;5009121;28;20051;-80
2022/03/26 06:21:13;;;;;;;9.77;6.95;;;8.00;96.70;;;;;;5004854;28;20042;-80
2022/03/26 06:23:41;;;;;;;11.43;7.18;;;8.10;96.70;;;;;;4990282;28;20905;-80
2022/03/26 06:26:10;;;;;;;10.50;6.90;;;8.20;96.70;;;;;;4990050;28;20070;-80
2022/03/26 06:28:39;;;;;;;9.10;7.15;;;8.30;96.70;;;;;;4995643;28;20042;-79
2022/03/26 06:31:12;;;;;;;12.02;7.72;;;8.30;96.70;;;;;;4991397;28;20050;-80
2022/03/26 06:33:43;;;;;;;9.98;7.50;;;8.40;96.70;;;;;;4977355;28;20053;-80
2022/03/26 06:36:13;;;;;;;13.30;7.50;;;8.40;96.70;;;;;;5009085;28;20411;-80
2022/03/26 06:38:44;;;;;;;11.20;7.57;;;8.40;96.70;;;;;;5002457;28;20066;-80
2022/03/26 06:41:12;;;;;;;11.85;8.10;;;8.40;96.70;;;;;;5018721;28;20141;-80
2022/03/26 06:43:41;;;;;;;15.40;9.00;;;8.50;96.70;;;;;;4995814;28;20049;-79
2022/03/26 06:46:10;;;;;;;11.77;8.30;;;8.60;96.70;;;;;;5009081;28;20050;-80
2022/03/26 06:48:39;;;;;;;11.48;7.65;;;8.70;96.70;;;;;;4970472;28;20047;-80
2022/03/26 06:51:10;;;;;;;10.95;7.18;;;8.70;96.70;;;;;;4988605;28;20097;-80
2022/03/26 06:53:38;;;;;;;12.07;7.13;;;8.60;96.70;;;;;;5010531;28;20051;-80
2022/03/26 06:56:07;;;;;;;9.55;7.72;;;8.70;96.70;;;;;;4981615;28;20046;-80
2022/03/26 06:58:36;;;;;;;9.82;7.43;;;8.50;96.70;;;;;;5005625;28;20046;-81
2022/03/26 07:01:04;;;;;;;11.48;8.10;;;8.60;96.70;;;;;;5008408;28;20050;-81
2022/03/26 07:03:33;;;;;;;12.48;8.93;;;8.60;96.70;;;;;;4976835;28;20046;-81
2022/03/26 07:06:03;;;;;;;13.20;8.90;;;8.60;96.70;;;;;;4980248;28;20046;-80
2022/03/26 07:08:33;;;;;;;12.75;9.45;;;8.80;96.70;;;;;;4974947;28;20037;-79
2022/03/26 07:11:02;;;;;;;13.40;8.98;;;8.90;96.70;;;;;;4982374;28;20044;-80
2022/03/26 07:13:30;;;;;;;14.27;9.07;;;8.90;96.70;;;;;;5005282;28;20085;-80
2022/03/26 07:15:59;;;;;;;11.75;9.10;;;9.00;96.70;;;;;;4996039;28;20480;-80
2022/03/26 07:18:27;;;;;;;12.93;9.48;;;9.00;96.70;;;;;;4983104;28;20129;-81
2022/03/26 07:21:00;;;;;;;14.45;9.90;;;9.00;96.70;;;;;;5012066;28;20748;-80
2022/03/26 07:23:28;;;;;;;13.68;9.95;;;9.10;96.70;;;;;;4988900;28;20052;-80
2022/03/26 07:25:58;;;;;;;13.10;9.90;;;9.10;96.70;;;;;;4994631;28;20061;-80
2022/03/26 07:28:27;;;;;;;12.43;9.43;;;9.30;96.70;;;;;;5004579;28;20050;-79
2022/03/26 07:30:55;;;;;;;11.80;9.18;;;9.30;96.70;;;;;;4989236;28;20038;-78
2022/03/26 07:33:23;;;;;;;11.63;9.30;;;9.50;96.70;;;;;;4980890;28;20042;-79
2022/03/26 07:35:51;;;;;;;14.98;10.43;;;9.50;96.70;;;;;;4989104;28;20141;-78
2022/03/26 07:38:19;;;;;;;16.35;13.48;;;9.70;96.70;;;;;;4987352;28;20848;-78
2022/03/26 07:40:48;;;;;;;13.43;11.07;;;9.80;96.70;;;;;;4972871;28;20054;-78
2022/03/26 07:43:18;;;;;;;14.27;9.95;;;9.90;96.70;;;;;;4986925;28;20037;-77
2022/03/26 07:45:47;;;;;;;11.75;9.32;;;9.90;96.70;;;;;;4991233;28;20037;-77
2022/03/26 07:48:15;;;;;;;11.98;8.30;;;10.00;96.70;;;;;;5001069;28;20484;-78
2022/03/26 07:50:43;;;;;;;10.60;7.90;;;10.10;96.70;;;;;;5006809;28;20046;-77
2022/03/26 07:53:12;;;;;;;11.57;8.18;;;10.20;96.70;;;;;;4972836;28;20042;-78
2022/03/26 07:55:40;;;;;;;10.00;7.30;;;10.30;96.70;;;;;;4985771;28;20043;-79
2022/03/26 07:58:09;;;;;;;8.70;7.22;;;10.50;96.70;;;;;;4987502;28;20052;-79
2022/03/26 08:00:41;;;;;;;8.02;6.65;;;10.50;96.70;;;;;;4972313;28;20058;-77
2022/03/26 08:03:10;;;;;;;13.05;7.03;;;10.50;96.70;;;;;;5002466;28;20043;-79
2022/03/26 08:05:40;;;;;;;9.43;7.63;;;10.50;96.70;;;;;;5001507;28;20088;-80
2022/03/26 08:08:09;;;;;;;12.48;7.68;;;10.70;96.70;;;;;;5005534;28;20058;-80
2022/03/26 08:10:37;;;;;;;10.27;7.25;;;10.70;96.70;;;;;;5001539;28;20042;-80
2022/03/26 08:13:06;;;;;;;10.07;7.55;;;10.90;96.70;;;;;;5001840;28;20054;-80
2022/03/26 08:15:34;;;;;;;10.57;6.82;;;11.00;96.70;;;;;;4987312;28;20072;-78
2022/03/26 08:18:04;;;;;;;9.32;7.10;;;11.10;96.70;;;;;;4986035;28;20042;-78
2022/03/26 08:20:32;;;;;;;9.45;6.55;;;11.20;96.70;;;;;;4983727;28;20509;-78
2022/03/26 08:23:00;;;;;;;9.98;5.90;;;11.30;96.70;;;;;;4988408;28;20041;-77
2022/03/26 08:28:16;;;;;;;;;;;11.50;96.70;;;;;;4989502;28;20077;-81
2022/03/26 08:30:44;;;;;;;10.93;6.72;;;11.70;96.70;;;;;;4986754;28;19929;-81
2022/03/26 08:33:15;;;;;;;10.30;7.15;;;11.70;96.70;;;;;;4987753;28;20077;-82
2022/03/26 08:35:43;;;;;;;18.90;14.55;;;11.80;96.70;;;;;;4975047;28;20085;-81
2022/03/26 08:38:12;;;;;;;12.55;8.27;;;11.90;96.70;;;;;;4986259;28;20296;-82
2022/03/26 08:40:41;;;;;;;8.43;6.40;;;11.90;96.70;;;;;;4968367;28;20043;-81
2022/03/26 08:43:13;;;;;;;13.13;7.05;;;12.00;96.70;;;;;;4998724;28;20054;-76
2022/03/26 08:45:44;;;;;;;8.60;6.93;;;12.20;96.70;;;;;;4963379;28;20556;-77
2022/03/26 08:48:15;;;;;;;8.00;6.72;;;12.30;96.70;;;;;;4963146;28;20124;-77
2022/03/26 08:50:44;;;;;;;10.10;7.43;;;12.40;96.70;;;;;;4981699;28;20126;-76
2022/03/26 08:53:12;;;;;;;12.55;7.00;;;12.60;96.70;;;;;;4996664;28;20501;-76
2022/03/26 08:55:41;;;;;;;11.38;7.45;;;12.70;96.70;;;;;;4994215;28;20058;-77
2022/03/26 08:58:10;;;;;;;11.13;7.20;;;12.80;96.70;;;;;;4982345;28;20038;-77
2022/03/26 09:00:45;;;;;;;9.70;7.93;;;12.80;96.70;;;;;;4980172;28;20066;-77
2022/03/26 09:03:17;;;;;;;9.70;8.02;;;13.00;96.70;;;;;;4996378;28;21302;-79
2022/03/26 09:05:47;;;;;;;10.68;7.95;;;13.00;96.70;;;;;;4995526;28;20050;-82
2022/03/26 09:08:15;;;;;;;9.73;7.28;;;13.00;96.70;;;;;;4998855;28;20043;-81
2022/03/26 09:10:44;;;;;;;13.02;6.97;;;13.10;96.70;;;;;;4999155;28;20420;-82
2022/03/26 09:13:15;;;;;;;9.10;6.80;;;13.30;96.70;;;;;;5001256;28;20043;-80
2022/03/26 09:15:43;;;;;;;8.85;6.60;;;13.50;96.70;;;;;;4999471;28;20062;-82
2022/03/26 09:18:12;;;;;;;7.50;6.50;;;13.60;96.70;;;;;;4985683;28;20043;-81
2022/03/26 09:20:41;;;;;;;9.05;6.63;;;13.60;96.70;;;;;;4971559;28;20059;-82
2022/03/26 09:23:10;;;;;;;8.75;6.65;;;13.60;96.70;;;;;;4973474;28;20098;-81
2022/03/26 09:25:38;;;;;;;9.43;6.90;;;13.70;96.70;;;;;;4999797;28;20051;-81
2022/03/26 09:28:06;;;;;;;8.60;6.57;;;13.80;96.70;;;;;;4998593;28;20054;-80
2022/03/26 09:30:36;;;;;;;21.55;13.70;;;13.80;96.70;;;;;;4999019;28;20043;-80
2022/03/26 09:33:06;;;;;;;16.83;12.52;;;13.90;96.50;;;;;;4968883;28;20043;-80
2022/03/26 09:35:34;;;;;;;12.75;7.93;;;14.10;96.70;;;;;;4969673;28;20420;-80
2022/03/26 09:38:04;;;;;;;10.07;7.20;;;14.20;96.30;;;;;;4977658;28;20140;-79
2022/03/26 09:40:33;;;;;;;10.70;7.20;;;14.30;96.10;;;;;;4986394;28;20046;-78
2022/03/26 09:43:02;;;;;;;8.38;6.80;;;14.50;95.40;;;;;;4989953;28;20039;-80
2022/03/26 09:45:31;;;;;;;9.10;6.95;;;14.60;95.00;;;;;;4977031;28;20050;-80
2022/03/26 09:47:59;;;;;;;10.77;7.22;;;14.70;95.40;;;;;;4969065;28;20704;-81
2022/03/26 09:50:27;;;;;;;13.30;7.43;;;14.90;95.60;;;;;;4971034;28;20053;-81
2022/03/26 09:52:56;;;;;;;11.48;7.68;;;15.00;96.20;;;;;;5003072;28;20409;-78
2022/03/26 09:55:27;;;;;;;12.15;7.35;;;15.20;95.70;;;;;;4975389;28;20164;-80
2022/03/26 09:57:55;;;;;;;9.75;7.78;;;15.50;96.20;;;;;;4991708;28;20046;-79
2022/03/26 10:00:24;;;;;;;12.35;8.13;;;15.50;95.20;;;;;;5006372;28;20046;-80
2022/03/26 10:02:52;;;;;;;13.25;9.07;;;15.40;95.20;;;;;;4971103;28;20038;-79
2022/03/26 10:05:21;;;;;;;11.95;7.88;;;15.50;95.40;;;;;;4975693;28;20089;-78
2022/03/26 10:07:50;;;;;;;9.82;8.13;;;15.60;94.80;;;;;;4966275;28;20052;-75
2022/03/26 10:10:23;;;;;;;11.73;7.65;;;15.90;94.80;;;;;;4982584;28;20047;-75
2022/03/26 10:12:53;;;;;;;16.77;8.20;;;16.00;93.00;;;;;;4981772;28;20543;-75
2022/03/26 10:15:21;;;;;;;11.85;7.93;;;16.20;92.60;;;;;;4968164;28;20074;-75
2022/03/26 10:17:49;;;;;;;11.80;8.48;;;16.50;91.90;;;;;;5002777;28;20050;-75
2022/03/26 10:20:18;;;;;;;13.77;8.15;;;16.50;91.40;;;;;;4982867;28;20046;-76
2022/03/26 10:22:50;;;;;;;12.35;7.93;;;16.50;91.40;;;;;;4987873;28;20246;-76
2022/03/26 10:25:20;;;;;;;10.75;8.10;;;16.50;91.20;;;;;;4985397;28;20161;-75
2022/03/26 10:27:50;;;;;;;13.25;8.07;;;16.60;90.70;;;;;;5002707;28;20064;-77
2022/03/26 10:32:39;;;;;;;9.48;7.53;;;16.80;90.60;;;;;;4985346;28;20660;-76
2022/03/26 10:33:20;;;;;;;10.60;8.23;;;16.80;90.40;;;;;;5003571;28;20046;-76
2022/03/26 10:35:55;;;;;;;13.18;7.93;;;16.90;90.50;;;;;;4987757;28;20440;-77
2022/03/26 10:38:28;;;;;;;12.68;8.20;;;17.00;90.80;;;;;;4986951;28;20520;-77
2022/03/26 10:41:06;;;;;;;10.77;7.95;;;17.20;90.90;;;;;;4998389;28;20054;-77
2022/03/26 10:43:35;;;;;;;12.50;8.27;;;17.20;89.70;;;;;;4989975;28;20149;-76
2022/03/26 10:46:04;;;;;;;13.60;8.02;;;17.30;90.30;;;;;;4990132;28;20042;-76
2022/03/26 10:48:34;;;;;;;10.35;7.45;;;17.50;89.60;;;;;;4971007;28;20082;-77
2022/03/26 10:51:06;;;;;;;10.90;8.35;;;17.80;89.70;;;;;;5004929;28;20137;-78
2022/03/26 10:53:36;;;;;;;10.70;8.07;;;18.20;87.90;;;;;;4972405;28;20058;-76
2022/03/26 10:56:06;;;;;;;12.05;8.85;;;18.40;85.60;;;;;;4976564;28;20046;-76
2022/03/26 10:58:35;;;;;;;11.15;8.60;;;18.60;83.50;;;;;;4988464;28;20074;-76
2022/03/26 11:01:05;;;;;;;10.30;8.27;;;18.90;83.70;;;;;;5003104;28;20455;-76
2022/03/26 11:03:35;;;;;;;11.65;7.88;;;19.00;83.60;;;;;;4986577;28;20104;-76
2022/03/26 11:06:08;;;;;;;12.15;8.35;;;19.00;83.70;;;;;;5002867;28;21208;-77
2022/03/26 11:08:37;;;;;;;12.63;9.23;;;19.30;83.50;;;;;;4981462;28;20050;-77
2022/03/26 11:11:07;;;;;;;10.25;7.95;;;19.30;83.20;;;;;;4989439;28;20046;-79
2022/03/26 11:13:38;;;;;;;14.00;8.57;;;19.30;82.70;;;;;;4985668;28;20101;-79
2022/03/26 11:16:16;;;;;;;10.50;8.68;;;19.60;81.50;;;;;;5020897;28;20050;-78
2022/03/26 11:18:53;;;;;;;12.77;8.50;;;19.80;80.30;;;;;;4999987;28;20053;-77
2022/03/26 11:21:52;;;;;;;14.20;8.80;;;19.90;80.40;;;;;;4970600;28;20377;-77
2022/03/26 11:24:56;;;;;;;12.93;8.65;;;20.10;79.70;;;;;;4995884;28;20056;-77
2022/03/26 11:27:52;;;;;;;10.98;8.55;;;20.30;79.70;;;;;;4971286;28;20595;-77
2022/03/26 11:30:29;;;;;;;10.65;8.25;;;20.30;79.00;;;;;;5019542;28;20649;-76
2022/03/26 11:33:10;;;;;;;13.70;8.90;;;20.10;78.20;;;;;;4985607;28;20222;-76
2022/03/26 11:35:52;;;;;;;11.38;8.48;;;20.00;77.70;;;;;;4987437;28;20045;-77
2022/03/26 11:38:20;;;;;;;13.05;8.43;;;19.80;78.50;;;;;;4966290;28;20054;-77
2022/03/26 11:40:53;;;;;;;9.68;7.95;;;19.90;78.60;;;;;;4970182;28;20042;-77
2022/03/26 11:43:53;;;;;;;10.88;8.07;;;20.20;78.50;;;;;;5000218;28;20042;-76
2022/03/26 11:52:18;;;;;;;11.10;7.50;;;20.20;79.00;;;;;;4997887;28;20058;-77
2022/03/26 11:54:47;;;;;;;9.50;8.13;;;20.30;79.20;;;;;;5002845;28;20136;-77
2022/03/26 11:57:17;;;;;;;9.77;7.88;;;20.50;78.30;;;;;;4986227;28;20453;-77
2022/03/26 11:59:46;;;;;;;12.02;8.13;;;20.60;78.10;;;;;;4975038;28;20054;-77
2022/03/26 12:02:23;;;;;;;8.65;6.82;;;20.60;78.10;;;;;;5000645;28;20100;-77
2022/03/26 12:06:35;;;;;;;9.52;6.28;;;20.80;76.70;;;;;;4979258;28;20100;-77
2022/03/26 12:08:09;;;;;;;9.85;6.47;;;21.00;74.20;;;;;;5002448;28;20049;-78
2022/03/26 12:10:37;;;;;;;7.03;6.30;;;21.40;74.50;;;;;;5001356;28;20104;-77
2022/03/26 12:13:07;;;;;;;8.68;6.78;;;21.80;72.90;;;;;;5002219;28;20475;-77
2022/03/26 12:15:39;;;;;;;7.00;6.30;;;21.90;72.10;;;;;;4999730;28;20074;-77
2022/03/26 12:18:11;;;;;;;8.88;6.97;;;22.00;72.10;;;;;;4987356;28;20046;-77
2022/03/26 12:20:43;;;;;;;11.02;6.95;;;22.20;72.00;;;;;;4968201;28;20049;-76
2022/03/26 12:23:13;;;;;;;8.93;7.00;;;22.40;71.90;;;;;;4990812;28;20042;-77
2022/03/26 12:25:47;;;;;;;8.23;7.43;;;22.40;71.10;;;;;;4951595;28;20349;-79
2022/03/26 12:28:17;;;;;;;8.20;6.97;;;22.50;70.20;;;;;;4989192;28;20054;-77
2022/03/26 12:30:47;;;;;;;9.23;6.88;;;22.50;70.00;;;;;;4991274;28;20054;-77
2022/03/26 12:33:16;;;;;;;8.20;5.63;;;22.80;70.90;;;;;;5001165;28;20038;-77
2022/03/26 12:35:47;;;;;;;8.50;6.88;;;22.90;70.70;;;;;;4980767;28;20787;-77
2022/03/26 12:38:16;;;;;;;8.25;6.57;;;22.90;69.80;;;;;;4987710;28;20139;-77
2022/03/26 12:40:52;;;;;;;9.07;7.57;;;23.00;67.80;;;;;;4999729;28;20566;-79
2022/03/26 12:43:24;;;;;;;8.35;6.75;;;23.00;69.00;;;;;;5002817;28;20122;-81
2022/03/26 12:45:53;;;;;;;7.50;6.47;;;22.80;69.10;;;;;;4987838;28;20504;-82
2022/03/26 12:48:26;;;;;;;9.93;6.53;;;23.00;69.70;;;;;;4991952;28;20058;-79
2022/03/26 12:51:01;;;;;;;7.22;6.53;;;23.20;69.70;;;;;;4984224;28;20416;-77
2022/03/26 12:53:35;;;;;;;8.13;7.32;;;23.30;68.40;;;;;;4999573;28;20180;-78
2022/03/26 12:56:07;;;;;;;9.20;6.72;;;23.40;68.10;;;;;;5005394;28;20145;-78
2022/03/26 13:01:24;;;;;;;8.85;7.10;;;23.50;68.30;;;;;;5000429;28;20054;-78
2022/03/26 13:03:53;;;;;;;6.70;5.95;;;23.70;68.30;;;;;;5003433;28;20038;-77
2022/03/26 13:06:24;;;;;;;8.85;6.50;;;23.90;67.90;;;;;;4994111;28;20504;-77
2022/03/26 13:08:54;;;;;;;8.30;6.80;;;23.90;67.40;;;;;;4974974;28;20129;-78
2022/03/26 13:11:25;;;;;;;7.80;6.88;;;24.00;67.20;;;;;;5004284;28;20053;-77